sensor_id;sensor_type;location;lat;lon;timestamp;temperature;humidity
19538;DHT22;9914;51.008;4.300;2023-09-08T00:02:27;22.10;99.90
19538;DHT22;9914;51.008;4.300;2023-09-08T00:04:54;22.20;99.90
19538;DHT22;9914;51.008;4.300;2023-09-08T00:07:20;22.10;99.90
19538;DHT22;9914;51.008;4.300;2023-09-08T00:09:46;22.00;99.90
19538;DHT22;9914;51.008;4.300;2023-09-08T00:12:11;21.90;99.90
19538;DHT22;9914;51.008;4.300;2023-09-08T00:14:38;21.80;99.90
19538;DHT22;9914;51.008;4.300;2023-09-08T00:17:04;21.80;99.90
19538;DHT22;9914;51.008;4.300;2023-09-08T00:19:30;21.80;99.90
19538;DHT22;9914;51.008;4.300;2023-09-08T00:21:56;21.80;99.90
19538;DHT22;9914;51.008;4.300;2023-09-08T00:24:22;21.80;99.90
19538;DHT22;9914;51.008;4.300;2023-09-08T00:26:48;21.80;99.90
19538;DHT22;9914;51.008;4.300;2023-09-08T00:29:13;21.70;99.90
19538;DHT22;9914;51.008;4.300;2023-09-08T00:31:39;21.70;99.90
19538;DHT22;9914;51.008;4.300;2023-09-08T00:34:05;21.70;99.90
19538;DHT22;9914;51.008;4.300;2023-09-08T00:36:32;21.70;99.90
19538;DHT22;9914;51.008;4.300;2023-09-08T00:38:57;21.70;99.90
19538;DHT22;9914;51.008;4.300;2023-09-08T00:41:23;21.70;99.90
19538;DHT22;9914;51.008;4.300;2023-09-08T00:43:49;21.70;99.90
19538;DHT22;9914;51.008;4.300;2023-09-08T00:46:16;21.70;99.90
19538;DHT22;9914;51.008;4.300;2023-09-08T00:48:42;21.70;99.90
19538;DHT22;9914;51.008;4.300;2023-09-08T00:51:09;21.70;99.90
19538;DHT22;9914;51.008;4.300;2023-09-08T00:53:35;21.60;99.90
19538;DHT22;9914;51.008;4.300;2023-09-08T00:56:02;21.60;99.90
19538;DHT22;9914;51.008;4.300;2023-09-08T00:58:28;21.70;99.90
19538;DHT22;9914;51.008;4.300;2023-09-08T01:00:54;21.70;99.90
19538;DHT22;9914;51.008;4.300;2023-09-08T01:03:23;21.60;99.90
19538;DHT22;9914;51.008;4.300;2023-09-08T01:05:49;21.50;99.90
19538;DHT22;9914;51.008;4.300;2023-09-08T01:08:15;21.50;99.90
19538;DHT22;9914;51.008;4.300;2023-09-08T01:10:41;21.40;99.90
19538;DHT22;9914;51.008;4.300;2023-09-08T01:13:07;21.40;99.90
19538;DHT22;9914;51.008;4.300;2023-09-08T01:15:33;21.40;99.90
19538;DHT22;9914;51.008;4.300;2023-09-08T01:17:58;21.30;99.90
19538;DHT22;9914;51.008;4.300;2023-09-08T01:20:27;21.30;99.90
19538;DHT22;9914;51.008;4.300;2023-09-08T01:25:26;21.30;99.90
19538;DHT22;9914;51.008;4.300;2023-09-08T01:27:53;21.30;99.90
19538;DHT22;9914;51.008;4.300;2023-09-08T01:30:22;21.20;99.90
19538;DHT22;9914;51.008;4.300;2023-09-08T01:32:49;21.20;99.90
19538;DHT22;9914;51.008;4.300;2023-09-08T01:35:15;21.20;99.90
19538;DHT22;9914;51.008;4.300;2023-09-08T01:37:48;21.20;99.90
19538;DHT22;9914;51.008;4.300;2023-09-08T01:40:14;21.20;99.90
19538;DHT22;9914;51.008;4.300;2023-09-08T01:42:40;21.20;99.90
19538;DHT22;9914;51.008;4.300;2023-09-08T01:45:06;21.20;99.90
19538;DHT22;9914;51.008;4.300;2023-09-08T01:47:33;21.10;99.90
19538;DHT22;9914;51.008;4.300;2023-09-08T01:49:59;21.00;99.90
19538;DHT22;9914;51.008;4.300;2023-09-08T01:52:25;21.10;99.90
19538;DHT22;9914;51.008;4.300;2023-09-08T01:54:51;21.00;99.90
19538;DHT22;9914;51.008;4.300;2023-09-08T01:57:17;21.00;99.90
19538;DHT22;9914;51.008;4.300;2023-09-08T01:59:42;21.00;99.90
19538;DHT22;9914;51.008;4.300;2023-09-08T02:02:10;21.10;99.90
19538;DHT22;9914;51.008;4.300;2023-09-08T02:04:36;21.00;99.90
19538;DHT22;9914;51.008;4.300;2023-09-08T02:07:01;21.10;99.90
19538;DHT22;9914;51.008;4.300;2023-09-08T02:09:36;21.00;99.90
19538;DHT22;9914;51.008;4.300;2023-09-08T02:12:02;21.00;99.90
19538;DHT22;9914;51.008;4.300;2023-09-08T02:14:28;21.00;99.90
19538;DHT22;9914;51.008;4.300;2023-09-08T02:16:55;20.90;99.90
19538;DHT22;9914;51.008;4.300;2023-09-08T02:19:20;20.90;99.90
19538;DHT22;9914;51.008;4.300;2023-09-08T02:21:46;20.90;99.90
19538;DHT22;9914;51.008;4.300;2023-09-08T02:24:12;20.90;99.90
19538;DHT22;9914;51.008;4.300;2023-09-08T02:26:38;20.90;99.90
19538;DHT22;9914;51.008;4.300;2023-09-08T02:29:04;20.90;99.90
19538;DHT22;9914;51.008;4.300;2023-09-08T02:31:30;20.80;99.90
19538;DHT22;9914;51.008;4.300;2023-09-08T02:33:56;20.80;99.90
19538;DHT22;9914;51.008;4.300;2023-09-08T02:36:22;20.80;99.90
19538;DHT22;9914;51.008;4.300;2023-09-08T02:38:54;20.80;99.90
19538;DHT22;9914;51.008;4.300;2023-09-08T02:41:20;20.70;99.90
19538;DHT22;9914;51.008;4.300;2023-09-08T02:43:46;20.70;99.90
19538;DHT22;9914;51.008;4.300;2023-09-08T02:46:12;20.70;99.90
19538;DHT22;9914;51.008;4.300;2023-09-08T02:48:38;20.70;99.90
19538;DHT22;9914;51.008;4.300;2023-09-08T02:51:03;20.60;99.90
19538;DHT22;9914;51.008;4.300;2023-09-08T02:53:30;20.60;99.90
19538;DHT22;9914;51.008;4.300;2023-09-08T02:55:56;20.60;99.90
19538;DHT22;9914;51.008;4.300;2023-09-08T02:58:22;20.50;99.90
19538;DHT22;9914;51.008;4.300;2023-09-08T03:00:48;20.50;99.90
19538;DHT22;9914;51.008;4.300;2023-09-08T03:03:14;20.50;99.90
19538;DHT22;9914;51.008;4.300;2023-09-08T03:05:39;20.50;99.90
19538;DHT22;9914;51.008;4.300;2023-09-08T03:08:05;20.60;99.90
19538;DHT22;9914;51.008;4.300;2023-09-08T03:10:33;20.60;99.90
19538;DHT22;9914;51.008;4.300;2023-09-08T03:13:03;20.60;99.90
19538;DHT22;9914;51.008;4.300;2023-09-08T03:15:28;20.60;99.90
19538;DHT22;9914;51.008;4.300;2023-09-08T03:17:54;20.60;99.90
19538;DHT22;9914;51.008;4.300;2023-09-08T03:20:20;20.60;99.90
19538;DHT22;9914;51.008;4.300;2023-09-08T03:22:46;20.60;99.90
19538;DHT22;9914;51.008;4.300;2023-09-08T03:25:14;20.50;99.90
19538;DHT22;9914;51.008;4.300;2023-09-08T03:27:40;20.40;99.90
19538;DHT22;9914;51.008;4.300;2023-09-08T03:30:06;20.40;99.90
19538;DHT22;9914;51.008;4.300;2023-09-08T03:32:33;20.30;99.90
19538;DHT22;9914;51.008;4.300;2023-09-08T03:34:59;20.40;99.90
19538;DHT22;9914;51.008;4.300;2023-09-08T03:37:25;20.50;99.90
19538;DHT22;9914;51.008;4.300;2023-09-08T03:39:52;20.60;99.90
19538;DHT22;9914;51.008;4.300;2023-09-08T03:42:18;20.50;99.90
19538;DHT22;9914;51.008;4.300;2023-09-08T03:44:44;20.30;99.90
19538;DHT22;9914;51.008;4.300;2023-09-08T03:47:09;20.30;99.90
19538;DHT22;9914;51.008;4.300;2023-09-08T03:49:35;20.30;99.90
19538;DHT22;9914;51.008;4.300;2023-09-08T03:52:01;20.20;99.90
19538;DHT22;9914;51.008;4.300;2023-09-08T03:54:27;20.20;99.90
19538;DHT22;9914;51.008;4.300;2023-09-08T03:56:53;20.30;99.90
19538;DHT22;9914;51.008;4.300;2023-09-08T03:59:18;20.40;99.90
19538;DHT22;9914;51.008;4.300;2023-09-08T04:01:44;20.30;99.90
19538;DHT22;9914;51.008;4.300;2023-09-08T04:04:09;20.30;99.90
19538;DHT22;9914;51.008;4.300;2023-09-08T04:06:35;20.30;99.90
19538;DHT22;9914;51.008;4.300;2023-09-08T04:09:01;20.20;99.90
19538;DHT22;9914;51.008;4.300;2023-09-08T04:11:26;20.10;99.90
19538;DHT22;9914;51.008;4.300;2023-09-08T04:13:53;20.20;99.90
19538;DHT22;9914;51.008;4.300;2023-09-08T04:16:19;20.30;99.90
19538;DHT22;9914;51.008;4.300;2023-09-08T04:18:44;20.30;99.90
19538;DHT22;9914;51.008;4.300;2023-09-08T04:21:10;20.40;99.90
19538;DHT22;9914;51.008;4.300;2023-09-08T04:23:36;20.30;99.90
19538;DHT22;9914;51.008;4.300;2023-09-08T04:26:01;20.20;99.90
19538;DHT22;9914;51.008;4.300;2023-09-08T04:28:27;20.20;99.90
19538;DHT22;9914;51.008;4.300;2023-09-08T04:30:53;20.10;99.90
19538;DHT22;9914;51.008;4.300;2023-09-08T04:33:19;20.10;99.90
19538;DHT22;9914;51.008;4.300;2023-09-08T04:35:44;20.00;99.90
19538;DHT22;9914;51.008;4.300;2023-09-08T04:38:10;20.00;99.90
19538;DHT22;9914;51.008;4.300;2023-09-08T04:40:39;19.90;99.90
19538;DHT22;9914;51.008;4.300;2023-09-08T04:43:05;19.80;99.90
19538;DHT22;9914;51.008;4.300;2023-09-08T04:45:31;19.80;99.90
19538;DHT22;9914;51.008;4.300;2023-09-08T04:47:56;19.90;99.90
19538;DHT22;9914;51.008;4.300;2023-09-08T04:50:22;20.20;99.90
19538;DHT22;9914;51.008;4.300;2023-09-08T04:52:48;20.20;99.90
19538;DHT22;9914;51.008;4.300;2023-09-08T04:55:13;20.10;99.90
19538;DHT22;9914;51.008;4.300;2023-09-08T04:57:39;20.10;99.90
19538;DHT22;9914;51.008;4.300;2023-09-08T05:00:05;20.10;99.90
19538;DHT22;9914;51.008;4.300;2023-09-08T05:02:32;20.10;99.90
19538;DHT22;9914;51.008;4.300;2023-09-08T05:04:57;19.90;99.90
19538;DHT22;9914;51.008;4.300;2023-09-08T05:07:23;19.80;99.90
19538;DHT22;9914;51.008;4.300;2023-09-08T05:09:49;20.00;99.90
19538;DHT22;9914;51.008;4.300;2023-09-08T05:12:15;19.90;99.90
19538;DHT22;9914;51.008;4.300;2023-09-08T05:14:40;19.90;99.90
19538;DHT22;9914;51.008;4.300;2023-09-08T05:17:07;20.00;99.90
19538;DHT22;9914;51.008;4.300;2023-09-08T05:19:33;19.80;99.90
19538;DHT22;9914;51.008;4.300;2023-09-08T05:21:59;19.80;99.90
19538;DHT22;9914;51.008;4.300;2023-09-08T05:24:24;19.70;99.90
19538;DHT22;9914;51.008;4.300;2023-09-08T05:26:51;19.80;99.90
19538;DHT22;9914;51.008;4.300;2023-09-08T05:29:17;19.80;99.90
19538;DHT22;9914;51.008;4.300;2023-09-08T05:31:43;19.80;99.90
19538;DHT22;9914;51.008;4.300;2023-09-08T05:34:09;19.80;99.90
19538;DHT22;9914;51.008;4.300;2023-09-08T05:36:35;19.90;99.90
19538;DHT22;9914;51.008;4.300;2023-09-08T05:39:05;19.90;99.90
19538;DHT22;9914;51.008;4.300;2023-09-08T05:41:30;20.00;99.90
19538;DHT22;9914;51.008;4.300;2023-09-08T05:43:57;20.00;99.90
19538;DHT22;9914;51.008;4.300;2023-09-08T05:46:23;20.00;99.90
19538;DHT22;9914;51.008;4.300;2023-09-08T05:48:48;20.00;99.90
19538;DHT22;9914;51.008;4.300;2023-09-08T05:51:14;20.20;99.90
19538;DHT22;9914;51.008;4.300;2023-09-08T05:53:41;20.20;99.90
19538;DHT22;9914;51.008;4.300;2023-09-08T05:56:07;20.10;99.90
19538;DHT22;9914;51.008;4.300;2023-09-08T05:58:33;20.10;99.90
19538;DHT22;9914;51.008;4.300;2023-09-08T06:01:03;20.20;99.90
19538;DHT22;9914;51.008;4.300;2023-09-08T06:03:29;20.40;99.90
19538;DHT22;9914;51.008;4.300;2023-09-08T06:05:55;20.30;99.90
19538;DHT22;9914;51.008;4.300;2023-09-08T06:08:21;20.40;99.90
19538;DHT22;9914;51.008;4.300;2023-09-08T06:10:47;20.40;99.90
19538;DHT22;9914;51.008;4.300;2023-09-08T06:13:12;20.50;99.90
19538;DHT22;9914;51.008;4.300;2023-09-08T06:15:38;20.60;99.90
19538;DHT22;9914;51.008;4.300;2023-09-08T06:18:04;20.70;99.90
19538;DHT22;9914;51.008;4.300;2023-09-08T06:20:30;20.70;99.90
19538;DHT22;9914;51.008;4.300;2023-09-08T06:22:56;20.90;99.90
19538;DHT22;9914;51.008;4.300;2023-09-08T06:25:21;21.00;99.90
19538;DHT22;9914;51.008;4.300;2023-09-08T06:27:47;21.00;99.90
19538;DHT22;9914;51.008;4.300;2023-09-08T06:30:13;21.00;99.90
19538;DHT22;9914;51.008;4.300;2023-09-08T06:32:43;21.00;99.90
19538;DHT22;9914;51.008;4.300;2023-09-08T06:35:09;21.10;99.90
19538;DHT22;9914;51.008;4.300;2023-09-08T06:37:39;21.30;99.90
19538;DHT22;9914;51.008;4.300;2023-09-08T06:40:05;21.30;99.90
19538;DHT22;9914;51.008;4.300;2023-09-08T06:42:31;21.40;99.90
19538;DHT22;9914;51.008;4.300;2023-09-08T06:44:58;21.50;99.90
19538;DHT22;9914;51.008;4.300;2023-09-08T06:47:24;21.50;99.90
19538;DHT22;9914;51.008;4.300;2023-09-08T06:49:50;21.50;99.90
19538;DHT22;9914;51.008;4.300;2023-09-08T06:52:17;21.60;99.90
19538;DHT22;9914;51.008;4.300;2023-09-08T06:54:43;21.80;99.90
19538;DHT22;9914;51.008;4.300;2023-09-08T06:57:10;21.80;99.90
19538;DHT22;9914;51.008;4.300;2023-09-08T06:59:36;21.80;99.90
19538;DHT22;9914;51.008;4.300;2023-09-08T07:02:01;22.00;99.90
19538;DHT22;9914;51.008;4.300;2023-09-08T07:04:27;22.10;99.90
19538;DHT22;9914;51.008;4.300;2023-09-08T07:06:53;22.20;99.90
19538;DHT22;9914;51.008;4.300;2023-09-08T07:09:20;22.40;99.90
19538;DHT22;9914;51.008;4.300;2023-09-08T07:11:46;22.50;99.90
19538;DHT22;9914;51.008;4.300;2023-09-08T07:14:12;22.70;99.90
19538;DHT22;9914;51.008;4.300;2023-09-08T07:16:38;22.70;99.90
19538;DHT22;9914;51.008;4.300;2023-09-08T07:19:03;22.70;99.90
19538;DHT22;9914;51.008;4.300;2023-09-08T07:21:30;22.80;99.90
19538;DHT22;9914;51.008;4.300;2023-09-08T07:23:56;23.00;99.90
19538;DHT22;9914;51.008;4.300;2023-09-08T07:26:21;23.20;99.90
19538;DHT22;9914;51.008;4.300;2023-09-08T07:28:47;23.30;99.90
19538;DHT22;9914;51.008;4.300;2023-09-08T07:31:14;23.40;99.90
19538;DHT22;9914;51.008;4.300;2023-09-08T07:33:40;23.60;99.90
19538;DHT22;9914;51.008;4.300;2023-09-08T07:36:07;23.60;99.90
19538;DHT22;9914;51.008;4.300;2023-09-08T07:38:34;23.80;99.90
19538;DHT22;9914;51.008;4.300;2023-09-08T07:41:01;24.10;99.90
19538;DHT22;9914;51.008;4.300;2023-09-08T07:43:28;24.30;99.90
19538;DHT22;9914;51.008;4.300;2023-09-08T07:45:54;24.50;99.90
19538;DHT22;9914;51.008;4.300;2023-09-08T07:48:20;24.70;99.90
19538;DHT22;9914;51.008;4.300;2023-09-08T07:50:45;24.80;99.90
19538;DHT22;9914;51.008;4.300;2023-09-08T07:53:11;24.90;99.90
19538;DHT22;9914;51.008;4.300;2023-09-08T07:55:37;25.00;99.90
19538;DHT22;9914;51.008;4.300;2023-09-08T07:58:03;25.00;99.90
19538;DHT22;9914;51.008;4.300;2023-09-08T08:00:29;25.20;99.90
19538;DHT22;9914;51.008;4.300;2023-09-08T08:02:56;25.20;99.90
19538;DHT22;9914;51.008;4.300;2023-09-08T08:05:23;25.30;99.90
19538;DHT22;9914;51.008;4.300;2023-09-08T08:07:49;25.30;99.90
19538;DHT22;9914;51.008;4.300;2023-09-08T08:10:15;25.50;99.90
19538;DHT22;9914;51.008;4.300;2023-09-08T08:12:41;25.60;99.90
19538;DHT22;9914;51.008;4.300;2023-09-08T08:15:08;25.70;99.90
19538;DHT22;9914;51.008;4.300;2023-09-08T08:17:35;25.80;99.90
19538;DHT22;9914;51.008;4.300;2023-09-08T08:20:02;25.90;99.90
19538;DHT22;9914;51.008;4.300;2023-09-08T08:22:38;26.00;99.90
19538;DHT22;9914;51.008;4.300;2023-09-08T08:25:04;26.10;99.90
19538;DHT22;9914;51.008;4.300;2023-09-08T08:27:30;26.30;99.90
19538;DHT22;9914;51.008;4.300;2023-09-08T08:29:59;26.10;99.90
19538;DHT22;9914;51.008;4.300;2023-09-08T08:32:26;26.30;99.90
19538;DHT22;9914;51.008;4.300;2023-09-08T08:34:52;26.50;99.90
19538;DHT22;9914;51.008;4.300;2023-09-08T08:37:18;26.60;99.90
19538;DHT22;9914;51.008;4.300;2023-09-08T08:39:44;26.70;99.90
19538;DHT22;9914;51.008;4.300;2023-09-08T08:42:10;26.80;99.90
19538;DHT22;9914;51.008;4.300;2023-09-08T08:44:38;26.90;99.90
19538;DHT22;9914;51.008;4.300;2023-09-08T08:47:07;26.90;99.90
19538;DHT22;9914;51.008;4.300;2023-09-08T08:49:33;27.00;99.90
19538;DHT22;9914;51.008;4.300;2023-09-08T08:52:00;27.20;99.90
19538;DHT22;9914;51.008;4.300;2023-09-08T08:54:29;27.30;99.90
19538;DHT22;9914;51.008;4.300;2023-09-08T08:56:56;27.40;99.90
19538;DHT22;9914;51.008;4.300;2023-09-08T08:59:22;27.60;99.90
19538;DHT22;9914;51.008;4.300;2023-09-08T09:01:48;27.80;99.90
19538;DHT22;9914;51.008;4.300;2023-09-08T09:04:16;27.90;99.90
19538;DHT22;9914;51.008;4.300;2023-09-08T09:06:42;27.90;99.90
19538;DHT22;9914;51.008;4.300;2023-09-08T09:09:07;28.00;99.90
19538;DHT22;9914;51.008;4.300;2023-09-08T09:11:34;28.00;99.90
19538;DHT22;9914;51.008;4.300;2023-09-08T09:13:59;28.10;99.90
19538;DHT22;9914;51.008;4.300;2023-09-08T09:16:25;28.20;99.90
19538;DHT22;9914;51.008;4.300;2023-09-08T09:18:55;28.20;99.90
19538;DHT22;9914;51.008;4.300;2023-09-08T09:21:21;28.30;99.90
19538;DHT22;9914;51.008;4.300;2023-09-08T09:23:47;28.40;99.90
19538;DHT22;9914;51.008;4.300;2023-09-08T09:26:23;28.60;99.90
19538;DHT22;9914;51.008;4.300;2023-09-08T09:28:50;28.70;99.90
19538;DHT22;9914;51.008;4.300;2023-09-08T09:31:18;28.60;99.90
19538;DHT22;9914;51.008;4.300;2023-09-08T09:33:44;28.80;99.90
19538;DHT22;9914;51.008;4.300;2023-09-08T09:36:20;29.00;99.90
19538;DHT22;9914;51.008;4.300;2023-09-08T09:38:47;29.10;99.90
19538;DHT22;9914;51.008;4.300;2023-09-08T09:41:12;29.10;99.90
19538;DHT22;9914;51.008;4.300;2023-09-08T09:43:38;29.40;99.90
19538;DHT22;9914;51.008;4.300;2023-09-08T09:46:07;29.50;99.90
19538;DHT22;9914;51.008;4.300;2023-09-08T09:48:35;29.60;99.90
19538;DHT22;9914;51.008;4.300;2023-09-08T09:51:20;29.60;99.90
19538;DHT22;9914;51.008;4.300;2023-09-08T09:53:46;29.70;99.90
19538;DHT22;9914;51.008;4.300;2023-09-08T09:56:15;29.80;99.90
19538;DHT22;9914;51.008;4.300;2023-09-08T09:58:43;29.90;99.90
19538;DHT22;9914;51.008;4.300;2023-09-08T10:01:10;30.00;99.90
19538;DHT22;9914;51.008;4.300;2023-09-08T10:03:39;30.10;99.90
19538;DHT22;9914;51.008;4.300;2023-09-08T10:06:05;30.10;99.90
19538;DHT22;9914;51.008;4.300;2023-09-08T10:08:34;30.20;99.90
19538;DHT22;9914;51.008;4.300;2023-09-08T10:11:05;30.20;99.90
19538;DHT22;9914;51.008;4.300;2023-09-08T10:13:39;30.10;99.90
19538;DHT22;9914;51.008;4.300;2023-09-08T10:16:05;30.20;99.90
19538;DHT22;9914;51.008;4.300;2023-09-08T10:18:35;30.40;99.90
19538;DHT22;9914;51.008;4.300;2023-09-08T10:21:03;30.70;99.90
19538;DHT22;9914;51.008;4.300;2023-09-08T10:23:40;31.00;99.90
19538;DHT22;9914;51.008;4.300;2023-09-08T10:26:09;31.10;99.90
19538;DHT22;9914;51.008;4.300;2023-09-08T10:28:36;31.20;99.90
19538;DHT22;9914;51.008;4.300;2023-09-08T10:31:04;31.10;99.90
19538;DHT22;9914;51.008;4.300;2023-09-08T10:33:31;31.20;99.90
19538;DHT22;9914;51.008;4.300;2023-09-08T10:35:58;31.00;99.90
19538;DHT22;9914;51.008;4.300;2023-09-08T10:38:29;30.90;99.90
19538;DHT22;9914;51.008;4.300;2023-09-08T10:44:06;31.30;99.90
19538;DHT22;9914;51.008;4.300;2023-09-08T10:46:33;31.30;99.90
19538;DHT22;9914;51.008;4.300;2023-09-08T10:49:05;31.30;99.90
19538;DHT22;9914;51.008;4.300;2023-09-08T10:51:33;31.30;99.90
19538;DHT22;9914;51.008;4.300;2023-09-08T10:54:00;31.30;99.90
19538;DHT22;9914;51.008;4.300;2023-09-08T10:56:56;31.40;99.90
19538;DHT22;9914;51.008;4.300;2023-09-08T10:59:27;31.40;99.90
19538;DHT22;9914;51.008;4.300;2023-09-08T11:01:54;31.40;99.90
19538;DHT22;9914;51.008;4.300;2023-09-08T11:04:21;31.40;99.90
19538;DHT22;9914;51.008;4.300;2023-09-08T11:06:49;31.50;99.90
19538;DHT22;9914;51.008;4.300;2023-09-08T11:09:16;31.70;99.90
19538;DHT22;9914;51.008;4.300;2023-09-08T11:11:42;31.70;99.90
19538;DHT22;9914;51.008;4.300;2023-09-08T11:14:08;31.80;99.90
19538;DHT22;9914;51.008;4.300;2023-09-08T11:16:33;31.90;99.90
19538;DHT22;9914;51.008;4.300;2023-09-08T11:19:00;32.00;99.90
19538;DHT22;9914;51.008;4.300;2023-09-08T11:21:30;32.10;99.90
19538;DHT22;9914;51.008;4.300;2023-09-08T11:24:01;32.20;99.90
19538;DHT22;9914;51.008;4.300;2023-09-08T11:26:28;32.20;99.90
19538;DHT22;9914;51.008;4.300;2023-09-08T11:28:54;32.30;99.90
19538;DHT22;9914;51.008;4.300;2023-09-08T11:31:20;32.30;99.90
19538;DHT22;9914;51.008;4.300;2023-09-08T11:33:48;32.30;99.90
19538;DHT22;9914;51.008;4.300;2023-09-08T11:36:14;32.30;99.90
19538;DHT22;9914;51.008;4.300;2023-09-08T11:38:43;32.20;99.90
19538;DHT22;9914;51.008;4.300;2023-09-08T11:41:10;32.30;99.90
19538;DHT22;9914;51.008;4.300;2023-09-08T11:43:37;32.30;99.90
19538;DHT22;9914;51.008;4.300;2023-09-08T11:46:02;32.40;99.90
19538;DHT22;9914;51.008;4.300;2023-09-08T11:48:28;32.50;99.90
19538;DHT22;9914;51.008;4.300;2023-09-08T11:50:54;32.70;99.90
19538;DHT22;9914;51.008;4.300;2023-09-08T11:53:23;32.80;99.90
19538;DHT22;9914;51.008;4.300;2023-09-08T11:55:49;32.80;99.90
19538;DHT22;9914;51.008;4.300;2023-09-08T11:58:17;32.90;99.90
19538;DHT22;9914;51.008;4.300;2023-09-08T12:00:44;32.90;99.90
19538;DHT22;9914;51.008;4.300;2023-09-08T12:03:14;33.00;99.90
19538;DHT22;9914;51.008;4.300;2023-09-08T12:05:41;32.90;99.90
19538;DHT22;9914;51.008;4.300;2023-09-08T12:08:08;33.20;99.90
19538;DHT22;9914;51.008;4.300;2023-09-08T12:10:40;33.30;99.90
19538;DHT22;9914;51.008;4.300;2023-09-08T12:13:06;33.30;99.90
19538;DHT22;9914;51.008;4.300;2023-09-08T12:15:40;33.40;99.90
19538;DHT22;9914;51.008;4.300;2023-09-08T12:18:12;33.40;99.90
19538;DHT22;9914;51.008;4.300;2023-09-08T12:20:39;33.20;99.90
19538;DHT22;9914;51.008;4.300;2023-09-08T12:23:14;33.10;99.90
19538;DHT22;9914;51.008;4.300;2023-09-08T12:25:48;33.10;99.90
19538;DHT22;9914;51.008;4.300;2023-09-08T12:28:15;33.10;99.90
19538;DHT22;9914;51.008;4.300;2023-09-08T12:30:40;33.10;99.90
19538;DHT22;9914;51.008;4.300;2023-09-08T12:33:07;33.40;99.90
19538;DHT22;9914;51.008;4.300;2023-09-08T12:35:34;33.60;99.90
19538;DHT22;9914;51.008;4.300;2023-09-08T12:38:02;33.80;99.90
19538;DHT22;9914;51.008;4.300;2023-09-08T12:40:29;33.70;99.90
19538;DHT22;9914;51.008;4.300;2023-09-08T12:42:56;33.60;99.90
19538;DHT22;9914;51.008;4.300;2023-09-08T12:45:25;33.60;99.90
19538;DHT22;9914;51.008;4.300;2023-09-08T12:47:51;33.50;99.90
19538;DHT22;9914;51.008;4.300;2023-09-08T12:50:17;33.40;99.90
19538;DHT22;9914;51.008;4.300;2023-09-08T12:52:43;33.40;99.90
19538;DHT22;9914;51.008;4.300;2023-09-08T12:55:09;33.40;99.90
19538;DHT22;9914;51.008;4.300;2023-09-08T12:57:36;33.40;99.90
19538;DHT22;9914;51.008;4.300;2023-09-08T13:00:03;33.40;99.90
19538;DHT22;9914;51.008;4.300;2023-09-08T13:02:29;33.50;99.90
19538;DHT22;9914;51.008;4.300;2023-09-08T13:04:54;33.60;99.90
19538;DHT22;9914;51.008;4.300;2023-09-08T13:07:21;33.70;99.90
19538;DHT22;9914;51.008;4.300;2023-09-08T13:09:46;33.80;99.90
19538;DHT22;9914;51.008;4.300;2023-09-08T13:12:12;34.00;99.90
19538;DHT22;9914;51.008;4.300;2023-09-08T13:14:39;34.00;99.90
19538;DHT22;9914;51.008;4.300;2023-09-08T13:17:05;33.90;99.90
19538;DHT22;9914;51.008;4.300;2023-09-08T13:19:34;33.90;99.90
19538;DHT22;9914;51.008;4.300;2023-09-08T13:22:00;34.00;99.90
19538;DHT22;9914;51.008;4.300;2023-09-08T13:24:25;34.00;99.90
19538;DHT22;9914;51.008;4.300;2023-09-08T13:26:53;33.90;99.90
19538;DHT22;9914;51.008;4.300;2023-09-08T13:29:19;33.90;99.90
19538;DHT22;9914;51.008;4.300;2023-09-08T13:31:44;33.80;99.90
19538;DHT22;9914;51.008;4.300;2023-09-08T13:34:10;33.80;99.90
19538;DHT22;9914;51.008;4.300;2023-09-08T13:36:35;33.80;99.90
19538;DHT22;9914;51.008;4.300;2023-09-08T13:39:02;33.80;99.90
19538;DHT22;9914;51.008;4.300;2023-09-08T13:41:50;33.80;99.90
19538;DHT22;9914;51.008;4.300;2023-09-08T13:44:20;33.80;99.90
19538;DHT22;9914;51.008;4.300;2023-09-08T13:46:46;33.90;99.90
19538;DHT22;9914;51.008;4.300;2023-09-08T13:49:12;33.90;99.90
19538;DHT22;9914;51.008;4.300;2023-09-08T13:51:38;33.90;99.90
19538;DHT22;9914;51.008;4.300;2023-09-08T13:54:04;33.90;99.90
19538;DHT22;9914;51.008;4.300;2023-09-08T13:56:29;33.90;99.90
19538;DHT22;9914;51.008;4.300;2023-09-08T13:58:55;33.90;99.90
19538;DHT22;9914;51.008;4.300;2023-09-08T14:01:20;33.70;99.90
19538;DHT22;9914;51.008;4.300;2023-09-08T14:03:46;33.10;99.90
19538;DHT22;9914;51.008;4.300;2023-09-08T14:06:12;33.20;99.90
19538;DHT22;9914;51.008;4.300;2023-09-08T14:08:37;33.30;99.90
19538;DHT22;9914;51.008;4.300;2023-09-08T14:11:03;33.20;99.90
19538;DHT22;9914;51.008;4.300;2023-09-08T14:13:29;32.60;99.90
19538;DHT22;9914;51.008;4.300;2023-09-08T14:15:54;33.00;99.90
19538;DHT22;9914;51.008;4.300;2023-09-08T14:18:20;33.30;99.90
19538;DHT22;9914;51.008;4.300;2023-09-08T14:20:46;33.20;99.90
19538;DHT22;9914;51.008;4.300;2023-09-08T14:23:11;33.30;99.90
19538;DHT22;9914;51.008;4.300;2023-09-08T14:25:37;33.70;99.90
19538;DHT22;9914;51.008;4.300;2023-09-08T14:28:03;33.80;99.90
19538;DHT22;9914;51.008;4.300;2023-09-08T14:30:29;33.90;99.90
19538;DHT22;9914;51.008;4.300;2023-09-08T14:32:55;34.00;99.90
19538;DHT22;9914;51.008;4.300;2023-09-08T14:35:21;33.80;99.90
19538;DHT22;9914;51.008;4.300;2023-09-08T14:37:48;33.40;99.90
19538;DHT22;9914;51.008;4.300;2023-09-08T14:40:14;33.30;99.90
19538;DHT22;9914;51.008;4.300;2023-09-08T14:42:42;33.60;99.90
19538;DHT22;9914;51.008;4.300;2023-09-08T14:45:09;33.70;99.90
19538;DHT22;9914;51.008;4.300;2023-09-08T14:47:35;33.80;99.90
19538;DHT22;9914;51.008;4.300;2023-09-08T14:50:00;33.80;99.90
19538;DHT22;9914;51.008;4.300;2023-09-08T14:52:26;33.70;99.90
19538;DHT22;9914;51.008;4.300;2023-09-08T14:54:52;33.60;99.90
19538;DHT22;9914;51.008;4.300;2023-09-08T14:57:17;33.50;99.90
19538;DHT22;9914;51.008;4.300;2023-09-08T14:59:44;33.50;99.90
19538;DHT22;9914;51.008;4.300;2023-09-08T15:02:09;33.50;99.90
19538;DHT22;9914;51.008;4.300;2023-09-08T15:04:35;33.50;99.90
19538;DHT22;9914;51.008;4.300;2023-09-08T15:07:01;33.60;99.90
19538;DHT22;9914;51.008;4.300;2023-09-08T15:09:27;33.50;99.90
19538;DHT22;9914;51.008;4.300;2023-09-08T15:11:52;33.50;99.90
19538;DHT22;9914;51.008;4.300;2023-09-08T15:14:18;33.40;99.90
19538;DHT22;9914;51.008;4.300;2023-09-08T15:16:44;33.40;99.90
19538;DHT22;9914;51.008;4.300;2023-09-08T15:19:10;33.40;99.90
19538;DHT22;9914;51.008;4.300;2023-09-08T15:21:35;33.50;99.90
19538;DHT22;9914;51.008;4.300;2023-09-08T15:24:01;33.60;99.90
19538;DHT22;9914;51.008;4.300;2023-09-08T15:26:27;33.60;99.90
19538;DHT22;9914;51.008;4.300;2023-09-08T15:28:53;33.80;99.90
19538;DHT22;9914;51.008;4.300;2023-09-08T15:31:19;34.60;99.90
19538;DHT22;9914;51.008;4.300;2023-09-08T15:33:45;35.50;99.90
19538;DHT22;9914;51.008;4.300;2023-09-08T15:36:11;36.20;99.90
19538;DHT22;9914;51.008;4.300;2023-09-08T15:38:36;37.00;99.90
19538;DHT22;9914;51.008;4.300;2023-09-08T15:43:39;38.50;99.90
19538;DHT22;9914;51.008;4.300;2023-09-08T15:46:06;38.50;99.90
19538;DHT22;9914;51.008;4.300;2023-09-08T15:48:36;38.80;99.90
19538;DHT22;9914;51.008;4.300;2023-09-08T15:51:02;39.10;99.90